sensor_id;sensor_type;location;lat;lon;timestamp;P1;durP1;ratioP1;P2;durP2;ratioP2
21018;SDS011;10667;51.056;3.732;2022-12-18T00:02:16;111.05;;;54.00;;
21018;SDS011;10667;51.056;3.732;2022-12-18T00:04:42;97.88;;;51.85;;
21018;SDS011;10667;51.056;3.732;2022-12-18T00:07:07;105.10;;;51.13;;
21018;SDS011;10667;51.056;3.732;2022-12-18T00:09:33;102.65;;;52.75;;
21018;SDS011;10667;51.056;3.732;2022-12-18T00:11:59;103.90;;;52.97;;
21018;SDS011;10667;51.056;3.732;2022-12-18T00:14:25;105.25;;;53.85;;
21018;SDS011;10667;51.056;3.732;2022-12-18T00:16:50;119.63;;;59.65;;
21018;SDS011;10667;51.056;3.732;2022-12-18T00:19:16;115.05;;;53.22;;
21018;SDS011;10667;51.056;3.732;2022-12-18T00:21:42;116.15;;;50.50;;
21018;SDS011;10667;51.056;3.732;2022-12-18T00:24:09;98.63;;;48.80;;
21018;SDS011;10667;51.056;3.732;2022-12-18T00:26:36;101.00;;;51.08;;
21018;SDS011;10667;51.056;3.732;2022-12-18T00:29:05;106.75;;;50.78;;
21018;SDS011;10667;51.056;3.732;2022-12-18T00:31:32;110.72;;;49.30;;
21018;SDS011;10667;51.056;3.732;2022-12-18T00:33:59;108.67;;;48.23;;
21018;SDS011;10667;51.056;3.732;2022-12-18T00:36:25;102.85;;;53.42;;
21018;SDS011;10667;51.056;3.732;2022-12-18T00:38:53;95.43;;;47.15;;
21018;SDS011;10667;51.056;3.732;2022-12-18T00:41:20;92.20;;;45.80;;
21018;SDS011;10667;51.056;3.732;2022-12-18T00:44:05;97.03;;;44.42;;
21018;SDS011;10667;51.056;3.732;2022-12-18T00:46:32;104.53;;;44.30;;
21018;SDS011;10667;51.056;3.732;2022-12-18T00:48:58;94.88;;;46.20;;
21018;SDS011;10667;51.056;3.732;2022-12-18T00:51:24;99.50;;;45.30;;
21018;SDS011;10667;51.056;3.732;2022-12-18T00:53:50;99.35;;;45.88;;
21018;SDS011;10667;51.056;3.732;2022-12-18T00:56:16;99.43;;;44.42;;
21018;SDS011;10667;51.056;3.732;2022-12-18T00:58:42;90.70;;;44.45;;
21018;SDS011;10667;51.056;3.732;2022-12-18T01:01:08;92.93;;;43.10;;
21018;SDS011;10667;51.056;3.732;2022-12-18T01:03:33;78.55;;;41.05;;
21018;SDS011;10667;51.056;3.732;2022-12-18T01:05:59;89.10;;;43.00;;
21018;SDS011;10667;51.056;3.732;2022-12-18T01:08:29;84.47;;;39.53;;
21018;SDS011;10667;51.056;3.732;2022-12-18T01:10:55;87.50;;;41.70;;
21018;SDS011;10667;51.056;3.732;2022-12-18T01:13:21;82.83;;;39.30;;
21018;SDS011;10667;51.056;3.732;2022-12-18T01:15:50;82.22;;;41.30;;
21018;SDS011;10667;51.056;3.732;2022-12-18T01:18:16;85.72;;;40.13;;
21018;SDS011;10667;51.056;3.732;2022-12-18T01:20:41;93.28;;;43.20;;
21018;SDS011;10667;51.056;3.732;2022-12-18T01:23:07;87.22;;;41.97;;
21018;SDS011;10667;51.056;3.732;2022-12-18T01:25:35;87.37;;;41.57;;
21018;SDS011;10667;51.056;3.732;2022-12-18T01:28:01;77.35;;;38.03;;
21018;SDS011;10667;51.056;3.732;2022-12-18T01:30:27;81.20;;;39.67;;
21018;SDS011;10667;51.056;3.732;2022-12-18T01:32:53;85.00;;;40.13;;
21018;SDS011;10667;51.056;3.732;2022-12-18T01:35:19;87.45;;;40.97;;
21018;SDS011;10667;51.056;3.732;2022-12-18T01:37:44;76.13;;;38.17;;
21018;SDS011;10667;51.056;3.732;2022-12-18T01:40:10;82.95;;;40.30;;
21018;SDS011;10667;51.056;3.732;2022-12-18T01:42:36;89.17;;;38.23;;
21018;SDS011;10667;51.056;3.732;2022-12-18T01:50:07;71.45;;;35.08;;
21018;SDS011;10667;51.056;3.732;2022-12-18T01:52:33;79.18;;;35.35;;
21018;SDS011;10667;51.056;3.732;2022-12-18T01:55:01;71.40;;;34.50;;
21018;SDS011;10667;51.056;3.732;2022-12-18T01:57:29;78.05;;;36.20;;
21018;SDS011;10667;51.056;3.732;2022-12-18T01:59:57;78.77;;;36.53;;
21018;SDS011;10667;51.056;3.732;2022-12-18T02:02:27;74.57;;;34.78;;
21018;SDS011;10667;51.056;3.732;2022-12-18T02:04:53;77.10;;;35.03;;
21018;SDS011;10667;51.056;3.732;2022-12-18T02:07:25;65.80;;;33.50;;
21018;SDS011;10667;51.056;3.732;2022-12-18T02:10:04;72.93;;;33.20;;
21018;SDS011;10667;51.056;3.732;2022-12-18T02:12:45;70.25;;;32.17;;
21018;SDS011;10667;51.056;3.732;2022-12-18T02:15:29;68.77;;;32.67;;
21018;SDS011;10667;51.056;3.732;2022-12-18T02:18:11;65.97;;;31.55;;
21018;SDS011;10667;51.056;3.732;2022-12-18T02:20:58;67.63;;;32.08;;
21018;SDS011;10667;51.056;3.732;2022-12-18T02:28:43;67.35;;;30.33;;
21018;SDS011;10667;51.056;3.732;2022-12-18T02:31:19;66.35;;;30.73;;
21018;SDS011;10667;51.056;3.732;2022-12-18T02:33:49;64.47;;;30.45;;
21018;SDS011;10667;51.056;3.732;2022-12-18T02:36:16;72.13;;;31.60;;
21018;SDS011;10667;51.056;3.732;2022-12-18T02:38:43;70.50;;;32.40;;
21018;SDS011;10667;51.056;3.732;2022-12-18T02:41:10;66.83;;;31.77;;
21018;SDS011;10667;51.056;3.732;2022-12-18T02:43:38;63.40;;;31.52;;
21018;SDS011;10667;51.056;3.732;2022-12-18T02:48:51;56.67;;;28.75;;
21018;SDS011;10667;51.056;3.732;2022-12-18T02:51:29;57.50;;;29.17;;
21018;SDS011;10667;51.056;3.732;2022-12-18T02:54:06;62.20;;;29.20;;
21018;SDS011;10667;51.056;3.732;2022-12-18T02:56:43;56.90;;;28.23;;
21018;SDS011;10667;51.056;3.732;2022-12-18T02:59:17;66.40;;;28.40;;
21018;SDS011;10667;51.056;3.732;2022-12-18T03:01:59;66.10;;;27.63;;
21018;SDS011;10667;51.056;3.732;2022-12-18T03:04:55;59.10;;;27.07;;
21018;SDS011;10667;51.056;3.732;2022-12-18T03:07:39;60.53;;;27.63;;
21018;SDS011;10667;51.056;3.732;2022-12-18T03:10:19;60.53;;;27.02;;
21018;SDS011;10667;51.056;3.732;2022-12-18T03:12:52;58.42;;;27.55;;
21018;SDS011;10667;51.056;3.732;2022-12-18T03:15:43;56.15;;;26.90;;
21018;SDS011;10667;51.056;3.732;2022-12-18T03:18:14;55.47;;;26.07;;
21018;SDS011;10667;51.056;3.732;2022-12-18T03:20:45;59.37;;;26.93;;
21018;SDS011;10667;51.056;3.732;2022-12-18T03:23:15;49.67;;;24.47;;
21018;SDS011;10667;51.056;3.732;2022-12-18T03:25:46;52.00;;;25.27;;
21018;SDS011;10667;51.056;3.732;2022-12-18T03:28:17;49.23;;;24.80;;
21018;SDS011;10667;51.056;3.732;2022-12-18T03:30:46;56.87;;;25.47;;
21018;SDS011;10667;51.056;3.732;2022-12-18T03:33:16;52.97;;;25.13;;
21018;SDS011;10667;51.056;3.732;2022-12-18T03:35:46;55.00;;;25.30;;
21018;SDS011;10667;51.056;3.732;2022-12-18T03:38:12;53.23;;;25.70;;
21018;SDS011;10667;51.056;3.732;2022-12-18T03:43:11;53.05;;;24.45;;
21018;SDS011;10667;51.056;3.732;2022-12-18T03:45:51;50.10;;;23.37;;
21018;SDS011;10667;51.056;3.732;2022-12-18T03:48:28;51.03;;;24.65;;
21018;SDS011;10667;51.056;3.732;2022-12-18T03:51:13;52.87;;;24.87;;
21018;SDS011;10667;51.056;3.732;2022-12-18T03:53:55;48.38;;;23.42;;
21018;SDS011;10667;51.056;3.732;2022-12-18T03:56:29;52.95;;;24.15;;
21018;SDS011;10667;51.056;3.732;2022-12-18T03:58:58;47.87;;;24.07;;
21018;SDS011;10667;51.056;3.732;2022-12-18T04:01:46;49.15;;;24.20;;
21018;SDS011;10667;51.056;3.732;2022-12-18T04:04:14;45.50;;;23.27;;
21018;SDS011;10667;51.056;3.732;2022-12-18T04:06:41;49.57;;;23.50;;
21018;SDS011;10667;51.056;3.732;2022-12-18T04:09:08;52.50;;;24.60;;
21018;SDS011;10667;51.056;3.732;2022-12-18T04:11:34;52.93;;;24.17;;
21018;SDS011;10667;51.056;3.732;2022-12-18T04:14:00;54.03;;;23.35;;
21018;SDS011;10667;51.056;3.732;2022-12-18T04:16:26;50.70;;;24.98;;
21018;SDS011;10667;51.056;3.732;2022-12-18T04:18:52;49.47;;;24.20;;
21018;SDS011;10667;51.056;3.732;2022-12-18T04:21:18;53.13;;;24.17;;
21018;SDS011;10667;51.056;3.732;2022-12-18T04:23:45;58.92;;;25.70;;
21018;SDS011;10667;51.056;3.732;2022-12-18T04:26:10;54.90;;;25.10;;
21018;SDS011;10667;51.056;3.732;2022-12-18T04:28:36;58.17;;;24.48;;
21018;SDS011;10667;51.056;3.732;2022-12-18T04:31:02;48.10;;;23.50;;
21018;SDS011;10667;51.056;3.732;2022-12-18T04:33:28;52.80;;;24.45;;
21018;SDS011;10667;51.056;3.732;2022-12-18T04:35:53;53.13;;;24.70;;
21018;SDS011;10667;51.056;3.732;2022-12-18T04:38:19;56.70;;;24.97;;
21018;SDS011;10667;51.056;3.732;2022-12-18T04:40:45;51.72;;;24.00;;
21018;SDS011;10667;51.056;3.732;2022-12-18T04:43:10;44.97;;;23.17;;
21018;SDS011;10667;51.056;3.732;2022-12-18T04:45:36;54.17;;;25.17;;
21018;SDS011;10667;51.056;3.732;2022-12-18T04:48:02;52.40;;;25.17;;
21018;SDS011;10667;51.056;3.732;2022-12-18T04:50:28;48.37;;;22.50;;
21018;SDS011;10667;51.056;3.732;2022-12-18T04:52:54;46.47;;;23.00;;
21018;SDS011;10667;51.056;3.732;2022-12-18T04:55:20;48.30;;;23.60;;
21018;SDS011;10667;51.056;3.732;2022-12-18T04:57:46;51.87;;;23.40;;
21018;SDS011;10667;51.056;3.732;2022-12-18T05:00:12;49.80;;;23.35;;
21018;SDS011;10667;51.056;3.732;2022-12-18T05:02:38;51.40;;;24.20;;
21018;SDS011;10667;51.056;3.732;2022-12-18T05:05:03;50.53;;;22.47;;
21018;SDS011;10667;51.056;3.732;2022-12-18T05:07:29;48.37;;;23.07;;
21018;SDS011;10667;51.056;3.732;2022-12-18T05:09:55;53.88;;;23.52;;
21018;SDS011;10667;51.056;3.732;2022-12-18T05:12:24;42.78;;;21.65;;
21018;SDS011;10667;51.056;3.732;2022-12-18T05:14:49;46.37;;;22.00;;
21018;SDS011;10667;51.056;3.732;2022-12-18T05:17:15;44.40;;;22.33;;
21018;SDS011;10667;51.056;3.732;2022-12-18T05:19:41;48.10;;;22.87;;
21018;SDS011;10667;51.056;3.732;2022-12-18T05:22:07;45.90;;;21.17;;
21018;SDS011;10667;51.056;3.732;2022-12-18T05:24:32;44.73;;;21.77;;
21018;SDS011;10667;51.056;3.732;2022-12-18T05:26:58;47.33;;;21.27;;
21018;SDS011;10667;51.056;3.732;2022-12-18T05:29:24;50.65;;;22.30;;
21018;SDS011;10667;51.056;3.732;2022-12-18T05:31:50;44.13;;;22.02;;
21018;SDS011;10667;51.056;3.732;2022-12-18T05:34:16;46.60;;;22.55;;
21018;SDS011;10667;51.056;3.732;2022-12-18T05:36:41;42.78;;;20.70;;
21018;SDS011;10667;51.056;3.732;2022-12-18T05:39:07;40.03;;;20.03;;
21018;SDS011;10667;51.056;3.732;2022-12-18T05:41:33;45.22;;;21.77;;
21018;SDS011;10667;51.056;3.732;2022-12-18T05:43:58;40.78;;;20.73;;
21018;SDS011;10667;51.056;3.732;2022-12-18T05:46:24;43.33;;;21.03;;
21018;SDS011;10667;51.056;3.732;2022-12-18T05:48:50;44.30;;;21.50;;
21018;SDS011;10667;51.056;3.732;2022-12-18T05:51:17;45.40;;;20.47;;
21018;SDS011;10667;51.056;3.732;2022-12-18T05:53:44;44.50;;;20.02;;
21018;SDS011;10667;51.056;3.732;2022-12-18T05:56:11;44.47;;;20.90;;
21018;SDS011;10667;51.056;3.732;2022-12-18T05:58:39;40.25;;;21.33;;
21018;SDS011;10667;51.056;3.732;2022-12-18T06:01:07;42.58;;;20.40;;
21018;SDS011;10667;51.056;3.732;2022-12-18T06:03:36;48.00;;;20.97;;
21018;SDS011;10667;51.056;3.732;2022-12-18T06:06:02;43.83;;;20.17;;
21018;SDS011;10667;51.056;3.732;2022-12-18T06:08:28;43.13;;;19.97;;
21018;SDS011;10667;51.056;3.732;2022-12-18T06:10:54;44.57;;;19.50;;
21018;SDS011;10667;51.056;3.732;2022-12-18T06:13:20;39.65;;;20.00;;
21018;SDS011;10667;51.056;3.732;2022-12-18T06:15:46;41.60;;;21.07;;
21018;SDS011;10667;51.056;3.732;2022-12-18T06:18:11;40.67;;;19.97;;
21018;SDS011;10667;51.056;3.732;2022-12-18T06:20:37;44.10;;;20.83;;
21018;SDS011;10667;51.056;3.732;2022-12-18T06:23:04;41.33;;;19.20;;
21018;SDS011;10667;51.056;3.732;2022-12-18T06:25:31;43.40;;;20.37;;
21018;SDS011;10667;51.056;3.732;2022-12-18T06:27:58;37.47;;;19.57;;
21018;SDS011;10667;51.056;3.732;2022-12-18T06:30:23;44.43;;;21.23;;
21018;SDS011;10667;51.056;3.732;2022-12-18T06:32:49;40.17;;;19.10;;
21018;SDS011;10667;51.056;3.732;2022-12-18T06:35:15;43.53;;;20.30;;
21018;SDS011;10667;51.056;3.732;2022-12-18T06:37:41;39.43;;;18.90;;
21018;SDS011;10667;51.056;3.732;2022-12-18T06:40:06;39.37;;;19.30;;
21018;SDS011;10667;51.056;3.732;2022-12-18T06:42:33;38.50;;;18.83;;
21018;SDS011;10667;51.056;3.732;2022-12-18T06:44:58;38.28;;;17.80;;
21018;SDS011;10667;51.056;3.732;2022-12-18T06:47:24;40.97;;;20.67;;
21018;SDS011;10667;51.056;3.732;2022-12-18T06:49:50;38.03;;;19.33;;
21018;SDS011;10667;51.056;3.732;2022-12-18T06:52:15;34.13;;;17.93;;
21018;SDS011;10667;51.056;3.732;2022-12-18T06:54:41;36.13;;;18.30;;
21018;SDS011;10667;51.056;3.732;2022-12-18T06:57:06;36.77;;;17.43;;
21018;SDS011;10667;51.056;3.732;2022-12-18T06:59:32;38.80;;;18.77;;
21018;SDS011;10667;51.056;3.732;2022-12-18T07:01:58;34.17;;;18.17;;
21018;SDS011;10667;51.056;3.732;2022-12-18T07:04:27;35.30;;;18.17;;
21018;SDS011;10667;51.056;3.732;2022-12-18T07:06:54;39.63;;;19.43;;
21018;SDS011;10667;51.056;3.732;2022-12-18T07:09:20;37.83;;;18.60;;
21018;SDS011;10667;51.056;3.732;2022-12-18T07:11:45;35.65;;;17.27;;
21018;SDS011;10667;51.056;3.732;2022-12-18T07:14:11;35.10;;;17.42;;
21018;SDS011;10667;51.056;3.732;2022-12-18T07:16:36;35.33;;;19.07;;
21018;SDS011;10667;51.056;3.732;2022-12-18T07:19:02;33.10;;;17.10;;
21018;SDS011;10667;51.056;3.732;2022-12-18T07:21:28;35.93;;;17.23;;
21018;SDS011;10667;51.056;3.732;2022-12-18T07:23:53;38.13;;;18.13;;
21018;SDS011;10667;51.056;3.732;2022-12-18T07:26:20;32.13;;;16.70;;
21018;SDS011;10667;51.056;3.732;2022-12-18T07:28:46;35.08;;;17.52;;
21018;SDS011;10667;51.056;3.732;2022-12-18T07:31:13;32.83;;;16.98;;
21018;SDS011;10667;51.056;3.732;2022-12-18T07:33:40;38.13;;;17.30;;
21018;SDS011;10667;51.056;3.732;2022-12-18T07:36:06;35.50;;;16.23;;
21018;SDS011;10667;51.056;3.732;2022-12-18T07:38:33;37.72;;;16.88;;
21018;SDS011;10667;51.056;3.732;2022-12-18T07:41:01;35.92;;;16.90;;
21018;SDS011;10667;51.056;3.732;2022-12-18T07:43:34;28.20;;;16.40;;
21018;SDS011;10667;51.056;3.732;2022-12-18T07:46:00;34.72;;;17.13;;
21018;SDS011;10667;51.056;3.732;2022-12-18T07:48:27;34.83;;;16.45;;
21018;SDS011;10667;51.056;3.732;2022-12-18T07:50:53;29.60;;;15.00;;
21018;SDS011;10667;51.056;3.732;2022-12-18T07:53:19;34.88;;;17.02;;
21018;SDS011;10667;51.056;3.732;2022-12-18T07:55:44;51.53;;;21.83;;
21018;SDS011;10667;51.056;3.732;2022-12-18T07:58:10;30.40;;;15.70;;
21018;SDS011;10667;51.056;3.732;2022-12-18T08:00:36;31.80;;;16.23;;
21018;SDS011;10667;51.056;3.732;2022-12-18T08:03:01;36.83;;;16.50;;
21018;SDS011;10667;51.056;3.732;2022-12-18T08:05:27;33.20;;;16.27;;
21018;SDS011;10667;51.056;3.732;2022-12-18T08:07:53;34.17;;;15.47;;
21018;SDS011;10667;51.056;3.732;2022-12-18T08:10:19;32.45;;;15.60;;
21018;SDS011;10667;51.056;3.732;2022-12-18T08:12:45;26.90;;;14.52;;
21018;SDS011;10667;51.056;3.732;2022-12-18T08:15:14;31.07;;;16.30;;
21018;SDS011;10667;51.056;3.732;2022-12-18T08:17:40;30.17;;;15.57;;
21018;SDS011;10667;51.056;3.732;2022-12-18T08:20:06;27.20;;;15.43;;
21018;SDS011;10667;51.056;3.732;2022-12-18T08:22:33;30.50;;;15.20;;
21018;SDS011;10667;51.056;3.732;2022-12-18T08:25:00;29.77;;;15.30;;
21018;SDS011;10667;51.056;3.732;2022-12-18T08:27:26;29.13;;;15.70;;
21018;SDS011;10667;51.056;3.732;2022-12-18T08:29:52;33.23;;;17.00;;
21018;SDS011;10667;51.056;3.732;2022-12-18T08:32:17;29.43;;;15.57;;
21018;SDS011;10667;51.056;3.732;2022-12-18T08:34:43;28.77;;;15.97;;
21018;SDS011;10667;51.056;3.732;2022-12-18T08:37:09;27.70;;;16.02;;
21018;SDS011;10667;51.056;3.732;2022-12-18T08:39:34;30.57;;;15.83;;
21018;SDS011;10667;51.056;3.732;2022-12-18T08:42:00;26.83;;;15.03;;
21018;SDS011;10667;51.056;3.732;2022-12-18T08:44:44;31.60;;;15.83;;
21018;SDS011;10667;51.056;3.732;2022-12-18T08:47:10;26.60;;;14.53;;
21018;SDS011;10667;51.056;3.732;2022-12-18T08:49:36;28.70;;;14.95;;
21018;SDS011;10667;51.056;3.732;2022-12-18T08:52:01;30.40;;;15.77;;
21018;SDS011;10667;51.056;3.732;2022-12-18T08:54:27;31.52;;;16.15;;
21018;SDS011;10667;51.056;3.732;2022-12-18T08:56:53;28.20;;;15.70;;
21018;SDS011;10667;51.056;3.732;2022-12-18T08:59:19;28.63;;;14.95;;
21018;SDS011;10667;51.056;3.732;2022-12-18T09:01:45;31.27;;;14.60;;
21018;SDS011;10667;51.056;3.732;2022-12-18T09:04:11;30.27;;;15.90;;
21018;SDS011;10667;51.056;3.732;2022-12-18T09:06:37;27.17;;;15.25;;
21018;SDS011;10667;51.056;3.732;2022-12-18T09:09:04;26.98;;;15.30;;
21018;SDS011;10667;51.056;3.732;2022-12-18T09:11:30;25.77;;;14.77;;
21018;SDS011;10667;51.056;3.732;2022-12-18T09:13:56;27.92;;;15.30;;
21018;SDS011;10667;51.056;3.732;2022-12-18T09:16:23;26.90;;;15.40;;
21018;SDS011;10667;51.056;3.732;2022-12-18T09:18:50;28.42;;;15.15;;
21018;SDS011;10667;51.056;3.732;2022-12-18T09:21:17;34.80;;;16.33;;
21018;SDS011;10667;51.056;3.732;2022-12-18T09:23:48;25.50;;;15.68;;
21018;SDS011;10667;51.056;3.732;2022-12-18T09:26:15;33.38;;;16.05;;
21018;SDS011;10667;51.056;3.732;2022-12-18T09:28:41;28.65;;;15.68;;
21018;SDS011;10667;51.056;3.732;2022-12-18T09:31:07;27.05;;;15.98;;
21018;SDS011;10667;51.056;3.732;2022-12-18T09:33:34;30.80;;;16.55;;
21018;SDS011;10667;51.056;3.732;2022-12-18T09:36:02;24.83;;;15.25;;
21018;SDS011;10667;51.056;3.732;2022-12-18T09:38:29;29.90;;;16.35;;
21018;SDS011;10667;51.056;3.732;2022-12-18T09:41:06;30.25;;;16.67;;
21018;SDS011;10667;51.056;3.732;2022-12-18T09:43:58;26.67;;;15.43;;
21018;SDS011;10667;51.056;3.732;2022-12-18T09:46:28;31.85;;;15.63;;
21018;SDS011;10667;51.056;3.732;2022-12-18T09:48:59;27.42;;;16.85;;
21018;SDS011;10667;51.056;3.732;2022-12-18T09:51:37;25.95;;;16.25;;
21018;SDS011;10667;51.056;3.732;2022-12-18T09:54:19;33.67;;;16.67;;
21018;SDS011;10667;51.056;3.732;2022-12-18T09:56:47;28.08;;;16.55;;
21018;SDS011;10667;51.056;3.732;2022-12-18T10:01:55;28.50;;;16.25;;
21018;SDS011;10667;51.056;3.732;2022-12-18T10:04:21;32.92;;;16.95;;
21018;SDS011;10667;51.056;3.732;2022-12-18T10:06:55;30.95;;;16.90;;
21018;SDS011;10667;51.056;3.732;2022-12-18T10:09:42;30.90;;;16.40;;
21018;SDS011;10667;51.056;3.732;2022-12-18T10:12:25;28.17;;;15.68;;
21018;SDS011;10667;51.056;3.732;2022-12-18T10:15:06;29.70;;;16.75;;
21018;SDS011;10667;51.056;3.732;2022-12-18T10:20:19;33.53;;;16.98;;
21018;SDS011;10667;51.056;3.732;2022-12-18T10:23:12;33.95;;;17.60;;
21018;SDS011;10667;51.056;3.732;2022-12-18T10:28:18;27.95;;;16.67;;
21018;SDS011;10667;51.056;3.732;2022-12-18T10:30:45;30.30;;;17.85;;
21018;SDS011;10667;51.056;3.732;2022-12-18T10:33:21;31.23;;;17.55;;
21018;SDS011;10667;51.056;3.732;2022-12-18T10:35:51;27.17;;;16.67;;
21018;SDS011;10667;51.056;3.732;2022-12-18T10:40:49;28.10;;;17.10;;
21018;SDS011;10667;51.056;3.732;2022-12-18T10:43:22;29.10;;;18.05;;
21018;SDS011;10667;51.056;3.732;2022-12-18T10:48:31;32.30;;;17.52;;
21018;SDS011;10667;51.056;3.732;2022-12-18T10:50:58;32.35;;;17.55;;
21018;SDS011;10667;51.056;3.732;2022-12-18T10:53:26;27.00;;;16.15;;
21018;SDS011;10667;51.056;3.732;2022-12-18T10:55:54;30.38;;;16.42;;
21018;SDS011;10667;51.056;3.732;2022-12-18T10:58:24;29.33;;;17.35;;
21018;SDS011;10667;51.056;3.732;2022-12-18T11:01:03;29.13;;;17.40;;
21018;SDS011;10667;51.056;3.732;2022-12-18T11:03:32;28.33;;;16.90;;
21018;SDS011;10667;51.056;3.732;2022-12-18T11:06:07;31.58;;;17.42;;
21018;SDS011;10667;51.056;3.732;2022-12-18T11:08:35;29.75;;;17.08;;
21018;SDS011;10667;51.056;3.732;2022-12-18T11:11:01;28.15;;;17.38;;
21018;SDS011;10667;51.056;3.732;2022-12-18T11:13:28;33.25;;;16.83;;
21018;SDS011;10667;51.056;3.732;2022-12-18T11:15:56;34.45;;;17.27;;
21018;SDS011;10667;51.056;3.732;2022-12-18T11:18:55;27.45;;;16.10;;
21018;SDS011;10667;51.056;3.732;2022-12-18T11:21:14;33.75;;;17.55;;
21018;SDS011;10667;51.056;3.732;2022-12-18T11:23:47;28.02;;;17.65;;
21018;SDS011;10667;51.056;3.732;2022-12-18T11:26:15;29.67;;;16.80;;
21018;SDS011;10667;51.056;3.732;2022-12-18T11:31:17;30.88;;;17.92;;
21018;SDS011;10667;51.056;3.732;2022-12-18T11:36:23;37.92;;;17.38;;
21018;SDS011;10667;51.056;3.732;2022-12-18T11:38:49;29.27;;;17.58;;
21018;SDS011;10667;51.056;3.732;2022-12-18T11:44:14;32.22;;;16.95;;
21018;SDS011;10667;51.056;3.732;2022-12-18T11:46:55;33.55;;;16.00;;
21018;SDS011;10667;51.056;3.732;2022-12-18T11:49:40;36.42;;;17.38;;
21018;SDS011;10667;51.056;3.732;2022-12-18T11:52:23;38.85;;;16.23;;
21018;SDS011;10667;51.056;3.732;2022-12-18T11:54:52;36.28;;;17.30;;
21018;SDS011;10667;51.056;3.732;2022-12-18T12:00:02;34.38;;;17.23;;
21018;SDS011;10667;51.056;3.732;2022-12-18T12:05:17;35.38;;;17.15;;
21018;SDS011;10667;51.056;3.732;2022-12-18T12:07:58;36.20;;;17.35;;
21018;SDS011;10667;51.056;3.732;2022-12-18T12:10:54;56.47;;;18.15;;
21018;SDS011;10667;51.056;3.732;2022-12-18T12:16:24;30.73;;;17.23;;
21018;SDS011;10667;51.056;3.732;2022-12-18T12:22:11;36.70;;;18.38;;
21018;SDS011;10667;51.056;3.732;2022-12-18T12:32:55;35.08;;;19.92;;
21018;SDS011;10667;51.056;3.732;2022-12-18T12:38:36;39.47;;;19.60;;
21018;SDS011;10667;51.056;3.732;2022-12-18T12:41:12;37.90;;;19.02;;
21018;SDS011;10667;51.056;3.732;2022-12-18T12:44:14;37.45;;;19.95;;
21018;SDS011;10667;51.056;3.732;2022-12-18T12:46:43;34.22;;;18.55;;
21018;SDS011;10667;51.056;3.732;2022-12-18T12:49:13;35.67;;;20.23;;
21018;SDS011;10667;51.056;3.732;2022-12-18T12:51:45;58.05;;;22.60;;
21018;SDS011;10667;51.056;3.732;2022-12-18T12:54:19;41.47;;;20.98;;
21018;SDS011;10667;51.056;3.732;2022-12-18T12:56:53;36.83;;;20.65;;
21018;SDS011;10667;51.056;3.732;2022-12-18T12:59:41;40.25;;;20.67;;
21018;SDS011;10667;51.056;3.732;2022-12-18T13:02:42;45.92;;;21.05;;
21018;SDS011;10667;51.056;3.732;2022-12-18T13:05:25;42.38;;;20.10;;
21018;SDS011;10667;51.056;3.732;2022-12-18T13:08:02;36.30;;;20.95;;
21018;SDS011;10667;51.056;3.732;2022-12-18T13:10:33;39.35;;;21.90;;
21018;SDS011;10667;51.056;3.732;2022-12-18T13:13:08;43.10;;;20.67;;
21018;SDS011;10667;51.056;3.732;2022-12-18T13:15:44;45.58;;;22.13;;
21018;SDS011;10667;51.056;3.732;2022-12-18T13:18:22;41.83;;;21.15;;
21018;SDS011;10667;51.056;3.732;2022-12-18T13:21:34;43.20;;;22.52;;
21018;SDS011;10667;51.056;3.732;2022-12-18T13:23:52;46.55;;;21.55;;
21018;SDS011;10667;51.056;3.732;2022-12-18T13:31:10;48.78;;;24.85;;
21018;SDS011;10667;51.056;3.732;2022-12-18T13:33:48;45.42;;;23.17;;
21018;SDS011;10667;51.056;3.732;2022-12-18T13:38:42;47.08;;;24.25;;
21018;SDS011;10667;51.056;3.732;2022-12-18T13:41:26;43.75;;;23.98;;
21018;SDS011;10667;51.056;3.732;2022-12-18T13:44:10;45.63;;;22.23;;
21018;SDS011;10667;51.056;3.732;2022-12-18T13:46:54;41.65;;;22.40;;
21018;SDS011;10667;51.056;3.732;2022-12-18T13:49:37;48.53;;;23.70;;
21018;SDS011;10667;51.056;3.732;2022-12-18T13:52:28;44.78;;;23.85;;
21018;SDS011;10667;51.056;3.732;2022-12-18T13:54:58;42.28;;;22.30;;
21018;SDS011;10667;51.056;3.732;2022-12-18T13:57:28;49.05;;;23.27;;
21018;SDS011;10667;51.056;3.732;2022-12-18T13:59:56;48.03;;;24.30;;
21018;SDS011;10667;51.056;3.732;2022-12-18T14:02:24;47.17;;;24.00;;
21018;SDS011;10667;51.056;3.732;2022-12-18T14:04:52;44.22;;;23.15;;
21018;SDS011;10667;51.056;3.732;2022-12-18T14:07:22;50.90;;;25.77;;
21018;SDS011;10667;51.056;3.732;2022-12-18T14:09:57;48.63;;;24.30;;
21018;SDS011;10667;51.056;3.732;2022-12-18T14:12:25;44.83;;;23.65;;
21018;SDS011;10667;51.056;3.732;2022-12-18T14:17:52;49.13;;;22.92;;
21018;SDS011;10667;51.056;3.732;2022-12-18T14:20:28;43.33;;;22.55;;
21018;SDS011;10667;51.056;3.732;2022-12-18T14:22:56;56.75;;;25.05;;
21018;SDS011;10667;51.056;3.732;2022-12-18T14:25:25;43.15;;;23.55;;
21018;SDS011;10667;51.056;3.732;2022-12-18T14:27:53;46.33;;;24.48;;
21018;SDS011;10667;51.056;3.732;2022-12-18T14:30:37;44.10;;;22.95;;
21018;SDS011;10667;51.056;3.732;2022-12-18T14:35:35;44.50;;;22.02;;
21018;SDS011;10667;51.056;3.732;2022-12-18T14:41:31;45.22;;;22.85;;
21018;SDS011;10667;51.056;3.732;2022-12-18T14:43:39;48.53;;;24.13;;
21018;SDS011;10667;51.056;3.732;2022-12-18T14:48:53;45.97;;;23.23;;
21018;SDS011;10667;51.056;3.732;2022-12-18T14:51:26;48.35;;;24.90;;
21018;SDS011;10667;51.056;3.732;2022-12-18T14:54:03;47.70;;;23.60;;
21018;SDS011;10667;51.056;3.732;2022-12-18T14:56:46;50.88;;;24.85;;
21018;SDS011;10667;51.056;3.732;2022-12-18T14:59:21;46.78;;;23.92;;
21018;SDS011;10667;51.056;3.732;2022-12-18T15:04:29;50.58;;;24.67;;
21018;SDS011;10667;51.056;3.732;2022-12-18T15:09:33;49.70;;;24.05;;
21018;SDS011;10667;51.056;3.732;2022-12-18T15:11:59;47.35;;;23.27;;
21018;SDS011;10667;51.056;3.732;2022-12-18T15:14:33;45.40;;;23.35;;
21018;SDS011;10667;51.056;3.732;2022-12-18T15:17:19;50.58;;;24.83;;
21018;SDS011;10667;51.056;3.732;2022-12-18T15:19:47;49.15;;;23.77;;
21018;SDS011;10667;51.056;3.732;2022-12-18T15:22:35;46.78;;;24.63;;
21018;SDS011;10667;51.056;3.732;2022-12-18T15:25:01;51.78;;;24.98;;
21018;SDS011;10667;51.056;3.732;2022-12-18T15:27:45;45.13;;;22.80;;
21018;SDS011;10667;51.056;3.732;2022-12-18T15:30:16;60.92;;;26.95;;
21018;SDS011;10667;51.056;3.732;2022-12-18T15:32:47;51.15;;;23.50;;
21018;SDS011;10667;51.056;3.732;2022-12-18T15:37:44;62.10;;;25.20;;
21018;SDS011;10667;51.056;3.732;2022-12-18T15:40:14;45.72;;;23.17;;
21018;SDS011;10667;51.056;3.732;2022-12-18T15:42:41;50.28;;;23.10;;
21018;SDS011;10667;51.056;3.732;2022-12-18T15:45:25;45.95;;;23.25;;
21018;SDS011;10667;51.056;3.732;2022-12-18T15:47:52;49.20;;;23.50;;
21018;SDS011;10667;51.056;3.732;2022-12-18T15:50:18;51.35;;;23.48;;
21018;SDS011;10667;51.056;3.732;2022-12-18T15:52:47;47.05;;;24.70;;
21018;SDS011;10667;51.056;3.732;2022-12-18T15:55:16;49.25;;;25.65;;
21018;SDS011;10667;51.056;3.732;2022-12-18T15:58:03;46.33;;;25.15;;
21018;SDS011;10667;51.056;3.732;2022-12-18T16:00:29;60.45;;;25.20;;
21018;SDS011;10667;51.056;3.732;2022-12-18T16:02:55;44.58;;;23.38;;
21018;SDS011;10667;51.056;3.732;2022-12-18T16:05:21;48.30;;;23.95;;